Pretty Lake, Indiana
Current Conditions -  °F | °C
As of 7:15 PM on Friday 31 Oct 2014 (Local Time) from KANQ Reporting Station
NA  
Wind Chill: 26°   Ceiling: NA
Heat Index: 34°   Visibility: NA
Dew Point: 16°   Wind: 10mph
Humidity: 48%   Direction: 360°N
Pressure: 30.06"   Gusts: NA
Location:  41.5677°N, 85.3125°W
Report Text: KANQ 312315Z AUTO 36009KT 01/M09 A3006 RMK
Loading
Personal Weather Stations






























Interactive Weather Map
Tropical Storm Tracking
New forecast layout! Learn more

10-Day Weather Forecast

Advertisements
Track Severe Weather on mobile